Time;durP1;ratioP1;P1;durP2;ratioP2;P2;SDS_P1;SDS_P2;PMS_P1;PMS_P2;Temp;Humidity;BMP_temperature;BMP_pressure;BME280_temperature;BME280_humidity;BME280_pressure;Samples;Min_cycle;Max_cycle;Signal;HPM_P1;HPM_P2
2023/09/14 00:00:49;;;;;;;2.67;1.35;;;11.00;99.90;;;;;;6087542;23;20014;-69
2023/09/14 00:03:15;;;;;;;2.45;0.77;;;10.90;99.90;;;;;;6114245;23;20028;-69
2023/09/14 00:05:42;;;;;;;3.20;0.90;;;10.80;99.90;;;;;;6089246;23;20021;-69
2023/09/14 00:08:08;;;;;;;1.63;0.90;;;10.80;99.90;;;;;;6088120;23;20559;-69
2023/09/14 00:10:34;;;;;;;3.28;0.98;;;10.70;99.90;;;;;;6088490;23;20113;-69
2023/09/14 00:13:00;;;;;;;4.35;1.10;;;10.70;99.90;;;;;;6089623;23;20144;-69
2023/09/14 00:15:25;;;;;;;2.90;1.13;;;10.60;99.90;;;;;;6089090;23;20018;-69
2023/09/14 00:17:51;;;;;;;1.92;1.20;;;10.60;99.90;;;;;;6088161;23;20083;-69
2023/09/14 00:20:22;;;;;;;2.90;1.20;;;10.70;99.90;;;;;;6113262;23;20044;-69
2023/09/14 00:22:52;;;;;;;1.95;0.63;;;10.70;99.90;;;;;;6088601;23;20025;-69
2023/09/14 00:25:19;;;;;;;4.18;1.00;;;10.70;99.90;;;;;;6088329;23;20075;-69
2023/09/14 00:27:44;;;;;;;3.42;1.02;;;10.70;99.90;;;;;;6117454;23;20010;-69
2023/09/14 00:30:10;;;;;;;4.18;0.80;;;10.60;99.90;;;;;;6117012;23;20063;-69
2023/09/14 00:32:39;;;;;;;6.03;1.05;;;10.60;99.90;;;;;;6087100;23;20276;-69
2023/09/14 00:35:07;;;;;;;2.80;1.15;;;10.60;99.90;;;;;;6089385;23;20417;-69
2023/09/14 00:37:32;;;;;;;2.53;0.82;;;10.60;99.90;;;;;;6113541;23;20069;-69
2023/09/14 00:39:58;;;;;;;2.03;0.70;;;10.60;99.90;;;;;;6114553;23;20460;-69
2023/09/14 00:42:23;;;;;;;2.85;1.10;;;10.50;99.90;;;;;;6113452;23;20049;-69
2023/09/14 00:44:49;;;;;;;4.18;1.00;;;10.50;99.90;;;;;;6087750;23;20504;-69
2023/09/14 00:47:15;;;;;;;1.58;1.02;;;10.40;99.90;;;;;;6113917;23;20081;-69
2023/09/14 00:49:41;;;;;;;5.47;0.80;;;10.40;99.90;;;;;;6114884;23;20128;-69
2023/09/14 00:52:10;;;;;;;4.60;0.75;;;10.50;99.90;;;;;;6089445;23;20022;-70
2023/09/14 00:54:37;;;;;;;3.03;1.20;;;10.50;99.90;;;;;;6089287;23;20042;-69
2023/09/14 00:57:04;;;;;;;3.25;0.80;;;10.50;99.90;;;;;;6090378;23;20029;-69
2023/09/14 00:59:31;;;;;;;3.67;1.27;;;10.50;99.90;;;;;;6090548;23;20049;-69
2023/09/14 01:01:56;;;;;;;4.28;0.88;;;10.50;99.90;;;;;;6086850;23;20060;-69
2023/09/14 01:04:22;;;;;;;5.22;1.00;;;10.50;99.90;;;;;;6064480;23;20445;-70
2023/09/14 01:06:49;;;;;;;3.60;0.80;;;10.50;99.90;;;;;;6087661;23;20014;-69
2023/09/14 01:09:14;;;;;;;2.50;0.90;;;10.50;99.90;;;;;;6087435;23;20479;-69
2023/09/14 01:11:40;;;;;;;3.22;1.50;;;10.40;99.90;;;;;;6087769;23;20014;-69
2023/09/14 01:14:28;;;;;;;2.25;1.05;;;10.50;99.90;;;;;;6088088;23;20096;-69
2023/09/14 01:17:00;;;;;;;2.30;0.93;;;10.50;99.90;;;;;;6083343;23;20446;-69
2023/09/14 01:19:47;;;;;;;1.73;1.08;;;10.40;99.90;;;;;;6113060;23;20026;-69
2023/09/14 01:22:20;;;;;;;2.45;1.00;;;10.40;99.90;;;;;;6086209;23;20014;-69
2023/09/14 01:24:52;;;;;;;2.58;1.23;;;10.40;99.90;;;;;;6088373;23;20022;-69
2023/09/14 01:27:19;;;;;;;2.80;1.30;;;10.40;99.90;;;;;;6087711;23;20018;-69
2023/09/14 01:29:44;;;;;;;2.45;0.80;;;10.40;99.90;;;;;;6111917;23;20065;-70
2023/09/14 01:32:11;;;;;;;5.05;1.35;;;10.40;99.90;;;;;;6084192;23;20022;-69
2023/09/14 01:34:37;;;;;;;2.50;1.08;;;10.50;99.90;;;;;;6084944;23;20456;-69
2023/09/14 01:37:04;;;;;;;4.32;1.15;;;10.50;99.90;;;;;;6083867;23;20028;-69
2023/09/14 01:39:31;;;;;;;4.97;1.10;;;10.50;99.90;;;;;;6084359;23;20024;-69
2023/09/14 01:41:57;;;;;;;2.22;0.82;;;10.50;99.90;;;;;;6085814;23;20085;-69
2023/09/14 01:44:27;;;;;;;2.45;0.70;;;10.50;99.90;;;;;;6086324;23;20093;-69
2023/09/14 01:46:54;;;;;;;2.47;0.70;;;10.50;99.90;;;;;;6088566;23;20093;-69
2023/09/14 01:49:20;;;;;;;4.40;1.10;;;10.50;99.90;;;;;;6085332;23;20010;-70
2023/09/14 01:51:45;;;;;;;2.58;1.13;;;10.50;99.90;;;;;;6087050;23;20026;-69
2023/09/14 01:54:11;;;;;;;2.63;1.00;;;10.50;99.90;;;;;;6113908;23;20061;-69
2023/09/14 01:56:37;;;;;;;3.28;0.85;;;10.50;99.90;;;;;;6088058;23;20079;-69
2023/09/14 01:59:02;;;;;;;1.20;0.65;;;10.50;99.90;;;;;;6113717;23;20021;-69
2023/09/14 02:01:28;;;;;;;5.10;0.95;;;10.40;99.90;;;;;;6116665;23;20026;-69
2023/09/14 02:03:54;;;;;;;3.40;0.70;;;10.40;99.90;;;;;;6089969;23;20473;-70
2023/09/14 02:06:19;;;;;;;1.88;0.85;;;10.40;99.90;;;;;;6091605;23;20018;-69
2023/09/14 02:08:45;;;;;;;3.15;0.90;;;10.40;99.90;;;;;;6117130;23;20226;-69
2023/09/14 02:11:13;;;;;;;1.20;0.60;;;10.40;99.90;;;;;;6092737;23;20448;-69
2023/09/14 02:13:39;;;;;;;2.50;1.17;;;10.30;99.90;;;;;;6089583;23;20114;-69
2023/09/14 02:16:05;;;;;;;2.92;1.00;;;10.30;99.90;;;;;;6114357;23;20335;-69
2023/09/14 02:18:30;;;;;;;0.95;0.68;;;10.30;99.90;;;;;;6089217;23;20022;-70
2023/09/14 02:20:56;;;;;;;3.42;1.00;;;10.30;99.90;;;;;;6112827;23;20018;-69
2023/09/14 02:23:22;;;;;;;2.58;1.05;;;10.30;99.90;;;;;;6087721;23;20532;-69
2023/09/14 02:25:49;;;;;;;2.22;0.73;;;10.20;99.90;;;;;;6089528;23;20014;-69
2023/09/14 02:28:15;;;;;;;2.10;0.80;;;10.20;99.90;;;;;;6088277;23;20017;-69
2023/09/14 02:30:42;;;;;;;3.20;0.98;;;10.10;99.90;;;;;;6088719;23;20029;-69
2023/09/14 02:33:07;;;;;;;1.48;0.70;;;10.10;99.90;;;;;;6089598;23;20469;-69
2023/09/14 02:35:34;;;;;;;1.88;0.90;;;10.10;99.90;;;;;;6086395;23;20093;-69
2023/09/14 02:37:59;;;;;;;5.60;0.93;;;10.10;99.90;;;;;;6112618;23;20018;-69
2023/09/14 02:40:25;;;;;;;1.98;1.10;;;10.10;99.90;;;;;;6112815;23;20021;-69
2023/09/14 02:42:51;;;;;;;1.30;0.80;;;10.10;99.90;;;;;;6088163;23;20072;-69
2023/09/14 02:45:16;;;;;;;1.60;0.40;;;10.10;99.90;;;;;;6064010;23;20024;-69
2023/09/14 02:47:42;;;;;;;1.30;0.30;;;10.10;99.90;;;;;;6091995;23;20388;-69
2023/09/14 02:50:07;;;;;;;1.35;0.40;;;10.10;99.90;;;;;;6118406;23;20073;-69
2023/09/14 02:52:33;;;;;;;1.15;0.30;;;10.10;99.90;;;;;;6090614;23;20026;-68
2023/09/14 02:54:59;;;;;;;0.52;0.30;;;10.10;99.90;;;;;;6089364;23;20096;-68
2023/09/14 02:57:25;;;;;;;1.42;0.30;;;10.10;99.90;;;;;;6115510;23;20017;-68
2023/09/14 02:59:57;;;;;;;0.63;0.30;;;10.00;99.90;;;;;;6114955;23;20085;-69
2023/09/14 03:02:22;;;;;;;1.25;0.40;;;10.00;99.90;;;;;;6086435;23;20029;-69
2023/09/14 03:04:48;;;;;;;0.75;0.40;;;10.10;99.90;;;;;;6089340;23;20018;-69
2023/09/14 03:07:14;;;;;;;2.63;0.40;;;10.00;99.90;;;;;;6062404;23;20026;-69
2023/09/14 03:09:40;;;;;;;1.88;0.38;;;10.00;99.90;;;;;;6115927;23;20025;-69
2023/09/14 03:12:06;;;;;;;3.00;0.50;;;9.90;99.90;;;;;;6087675;23;20432;-69
2023/09/14 03:14:32;;;;;;;3.25;0.40;;;9.90;99.90;;;;;;6115176;23;20456;-69
2023/09/14 03:17:00;;;;;;;0.63;0.30;;;9.90;99.90;;;;;;6087363;23;20089;-68
2023/09/14 03:19:26;;;;;;;2.58;0.60;;;9.80;99.90;;;;;;6086680;23;20014;-68
2023/09/14 03:21:51;;;;;;;1.55;0.45;;;9.80;99.90;;;;;;6088046;23;20025;-68
2023/09/14 03:24:17;;;;;;;1.77;0.52;;;9.90;99.90;;;;;;6092127;23;20018;-68
2023/09/14 03:26:43;;;;;;;2.03;0.50;;;9.80;99.90;;;;;;6090562;23;20018;-68
2023/09/14 03:29:09;;;;;;;2.17;0.40;;;9.90;99.90;;;;;;6087465;23;20017;-68
2023/09/14 03:31:37;;;;;;;2.92;0.43;;;9.80;99.90;;;;;;6112449;23;20084;-68
2023/09/14 03:34:05;;;;;;;4.07;0.50;;;9.90;99.90;;;;;;6112436;23;20175;-68
2023/09/14 03:36:30;;;;;;;1.63;0.40;;;9.90;99.90;;;;;;6085476;23;20356;-68
2023/09/14 03:38:56;;;;;;;3.05;0.70;;;9.90;99.90;;;;;;6111330;23;20250;-68
2023/09/14 03:41:21;;;;;;;2.60;0.60;;;9.80;99.90;;;;;;6109823;23;20042;-69
2023/09/14 03:43:47;;;;;;;1.23;0.30;;;9.90;99.90;;;;;;6085920;23;20097;-68
2023/09/14 03:46:14;;;;;;;2.75;0.57;;;9.80;99.90;;;;;;6085756;23;20014;-68
2023/09/14 03:48:40;;;;;;;1.77;0.57;;;9.80;99.90;;;;;;6111967;23;20010;-69
2023/09/14 03:51:06;;;;;;;2.28;0.95;;;9.90;99.90;;;;;;6085996;23;20452;-68
2023/09/14 03:53:31;;;;;;;1.08;0.40;;;9.80;99.90;;;;;;6086794;23;20026;-69
2023/09/14 03:56:00;;;;;;;1.42;0.40;;;9.90;99.90;;;;;;6086317;23;20064;-69
2023/09/14 03:58:26;;;;;;;1.58;0.40;;;9.80;99.90;;;;;;6063213;23;20018;-69
2023/09/14 04:00:53;;;;;;;2.13;0.95;;;9.70;99.90;;;;;;6087475;23;20018;-69
2023/09/14 04:03:19;;;;;;;0.65;0.50;;;9.80;99.90;;;;;;6087040;23;20063;-69
2023/09/14 04:05:45;;;;;;;1.77;0.50;;;9.80;99.90;;;;;;6087239;23;20057;-69
2023/09/14 04:08:12;;;;;;;1.95;0.30;;;9.70;99.90;;;;;;6087472;23;20049;-69
2023/09/14 04:10:38;;;;;;;3.28;0.73;;;9.70;99.90;;;;;;6111229;23;20059;-69
2023/09/14 04:13:23;;;;;;;1.13;0.50;;;9.70;99.90;;;;;;6113160;23;20021;-69
2023/09/14 04:15:49;;;;;;;2.88;0.90;;;9.60;99.90;;;;;;6113158;23;20021;-69
2023/09/14 04:18:14;;;;;;;1.08;0.75;;;9.60;99.90;;;;;;6087715;23;20014;-69
2023/09/14 04:20:40;;;;;;;2.80;0.90;;;9.60;99.90;;;;;;6086470;23;20025;-69
2023/09/14 04:23:05;;;;;;;2.65;0.80;;;9.60;99.90;;;;;;6088413;23;20496;-69
2023/09/14 04:25:31;;;;;;;2.45;0.60;;;9.60;99.90;;;;;;6066491;23;20022;-69
2023/09/14 04:27:57;;;;;;;2.15;1.00;;;9.60;99.90;;;;;;6091423;23;20026;-69
2023/09/14 04:30:22;;;;;;;0.73;0.60;;;9.70;99.90;;;;;;6117228;23;20416;-69
2023/09/14 04:32:48;;;;;;;1.80;0.70;;;9.70;99.90;;;;;;6091850;23;20022;-69
2023/09/14 04:35:13;;;;;;;2.88;0.93;;;9.70;99.90;;;;;;6116256;23;20013;-69
2023/09/14 04:37:39;;;;;;;2.55;0.95;;;9.70;99.90;;;;;;6114374;23;20014;-69
2023/09/14 04:40:08;;;;;;;1.83;1.02;;;9.60;99.90;;;;;;6088720;23;20018;-69
2023/09/14 04:42:34;;;;;;;2.35;0.65;;;9.50;99.90;;;;;;6084796;23;20018;-69
2023/09/14 04:45:00;;;;;;;1.55;0.77;;;9.50;99.90;;;;;;6114954;23;20026;-69
2023/09/14 04:47:25;;;;;;;2.72;0.70;;;9.50;99.90;;;;;;6062864;23;20021;-69
2023/09/14 04:49:51;;;;;;;1.00;0.47;;;9.50;99.90;;;;;;6113613;23;20061;-69
2023/09/14 04:52:16;;;;;;;3.47;0.70;;;9.40;99.90;;;;;;6111529;23;20017;-69
2023/09/14 04:54:42;;;;;;;3.28;0.95;;;9.30;99.90;;;;;;6083522;23;20514;-69
2023/09/14 04:57:09;;;;;;;1.30;0.32;;;9.30;99.90;;;;;;6088055;23;20033;-69
2023/09/14 04:59:35;;;;;;;2.58;0.70;;;9.30;99.90;;;;;;6114309;23;20014;-69
2023/09/14 05:02:00;;;;;;;2.00;1.10;;;9.30;99.90;;;;;;6087899;23;20274;-68
2023/09/14 05:04:26;;;;;;;3.80;1.13;;;9.30;99.90;;;;;;6091761;23;20048;-69
2023/09/14 05:06:52;;;;;;;2.60;1.17;;;9.20;99.90;;;;;;6091016;23;20105;-69
2023/09/14 05:09:18;;;;;;;2.97;1.00;;;9.30;99.90;;;;;;6088935;23;20018;-69
2023/09/14 05:11:44;;;;;;;5.25;1.30;;;9.40;99.90;;;;;;6068196;23;20018;-69
2023/09/14 05:14:09;;;;;;;3.40;1.10;;;9.20;99.90;;;;;;6091512;23;20090;-69
2023/09/14 05:16:35;;;;;;;3.05;0.80;;;9.20;99.90;;;;;;6119096;23;20021;-69
2023/09/14 05:19:00;;;;;;;1.10;0.50;;;9.30;99.90;;;;;;6090414;23;20049;-68
2023/09/14 05:21:26;;;;;;;0.60;0.30;;;9.20;99.90;;;;;;6090623;23;20463;-69
2023/09/14 05:23:51;;;;;;;1.08;0.40;;;9.20;99.90;;;;;;6092443;23;20026;-69
2023/09/14 05:26:17;;;;;;;3.15;0.40;;;9.30;99.90;;;;;;6117823;23;20042;-69
2023/09/14 05:28:44;;;;;;;1.73;0.28;;;9.30;99.90;;;;;;6088844;23;20010;-69
2023/09/14 05:31:10;;;;;;;0.85;0.45;;;9.30;99.90;;;;;;6115804;23;20014;-69
2023/09/14 05:33:35;;;;;;;1.52;0.22;;;9.30;99.90;;;;;;6116537;23;20046;-69
2023/09/14 05:36:01;;;;;;;0.60;0.30;;;9.30;99.90;;;;;;6091349;23;20024;-69
2023/09/14 05:38:27;;;;;;;1.40;0.40;;;9.40;99.90;;;;;;6116930;23;20063;-69
2023/09/14 05:40:53;;;;;;;3.03;0.30;;;9.60;99.90;;;;;;6091120;23;20024;-69
2023/09/14 05:43:18;;;;;;;1.13;0.35;;;9.60;99.90;;;;;;6091730;23;20416;-69
2023/09/14 05:45:44;;;;;;;1.48;0.30;;;9.70;99.90;;;;;;6091689;23;20014;-69
2023/09/14 05:48:10;;;;;;;0.77;0.40;;;9.80;99.90;;;;;;6118250;23;20101;-69
2023/09/14 05:50:35;;;;;;;4.15;0.20;;;9.90;99.90;;;;;;6091833;23;20014;-69
2023/09/14 05:53:02;;;;;;;1.00;0.50;;;10.10;99.90;;;;;;6091879;23;20361;-69
2023/09/14 05:55:27;;;;;;;3.03;0.50;;;10.20;99.90;;;;;;6115907;23;20334;-69
2023/09/14 05:57:54;;;;;;;3.53;0.60;;;10.40;99.90;;;;;;6117788;23;20009;-69
2023/09/14 06:00:19;;;;;;;1.75;0.80;;;10.70;99.90;;;;;;6089566;23;20039;-70
2023/09/14 06:02:45;;;;;;;5.32;0.90;;;11.30;99.90;;;;;;6118650;23;20097;-69
2023/09/14 06:05:12;;;;;;;5.38;1.10;;;11.90;99.90;;;;;;6117933;23;20493;-69
2023/09/14 06:07:37;;;;;;;4.65;0.95;;;12.50;99.90;;;;;;6119672;23;20040;-69
2023/09/14 06:10:03;;;;;;;1.52;0.40;;;13.00;99.90;;;;;;6093889;23;20018;-70
2023/09/14 06:12:29;;;;;;;3.03;0.45;;;13.80;99.90;;;;;;6093344;23;20487;-69
2023/09/14 06:14:56;;;;;;;2.60;0.50;;;14.60;99.90;;;;;;6093632;23;20045;-70
2023/09/14 06:17:22;;;;;;;2.10;0.70;;;15.10;99.90;;;;;;6093703;23;20083;-70
2023/09/14 06:19:47;;;;;;;3.95;0.60;;;15.00;99.90;;;;;;6093483;23;20022;-69
2023/09/14 06:22:13;;;;;;;2.25;0.57;;;15.30;99.90;;;;;;6118389;23;20025;-70
2023/09/14 06:24:38;;;;;;;4.28;0.93;;;15.90;99.90;;;;;;6089286;23;20061;-70
2023/09/14 06:27:04;;;;;;;5.03;0.70;;;16.90;99.90;;;;;;6084821;23;20077;-70
2023/09/14 06:29:30;;;;;;;2.17;0.85;;;17.70;99.90;;;;;;6109414;23;20018;-70
2023/09/14 06:31:56;;;;;;;1.88;0.70;;;18.70;99.90;;;;;;6085638;23;20026;-70
2023/09/14 06:34:21;;;;;;;3.83;1.33;;;18.80;99.90;;;;;;6113475;23;20022;-70
2023/09/14 06:36:47;;;;;;;6.15;0.85;;;18.70;99.90;;;;;;6085638;23;20018;-70
2023/09/14 06:39:13;;;;;;;1.67;0.70;;;18.80;99.90;;;;;;6060899;23;20018;-70
2023/09/14 06:41:39;;;;;;;3.00;0.80;;;18.50;99.90;;;;;;6111152;23;20044;-70
2023/09/14 06:44:05;;;;;;;3.22;1.08;;;18.40;99.90;;;;;;6085441;23;20018;-70
2023/09/14 06:46:30;;;;;;;5.53;0.95;;;18.30;99.90;;;;;;6084618;23;20063;-70
2023/09/14 06:48:56;;;;;;;5.53;0.85;;;18.00;99.90;;;;;;6090431;23;20022;-70
2023/09/14 06:51:22;;;;;;;6.43;1.00;;;18.00;99.90;;;;;;6113222;23;20057;-70
2023/09/14 06:53:48;;;;;;;1.55;0.88;;;17.90;99.90;;;;;;6085600;23;20017;-70
2023/09/14 06:56:15;;;;;;;5.22;1.27;;;17.70;99.90;;;;;;6085340;23;20022;-70
2023/09/14 06:58:40;;;;;;;5.40;0.63;;;17.30;99.90;;;;;;6111430;23;20052;-70
2023/09/14 07:01:06;;;;;;;3.83;0.80;;;17.00;99.90;;;;;;6111379;23;20042;-69
2023/09/14 07:03:34;;;;;;;6.10;0.80;;;16.80;99.90;;;;;;6115101;23;20053;-70
2023/09/14 07:05:59;;;;;;;4.07;0.82;;;16.40;99.90;;;;;;6088399;23;20025;-70
2023/09/14 07:08:25;;;;;;;3.63;1.33;;;16.30;99.90;;;;;;6110613;23;20010;-70
2023/09/14 07:10:51;;;;;;;3.38;0.68;;;16.00;99.90;;;;;;6087316;23;20026;-70
2023/09/14 07:13:17;;;;;;;6.55;0.88;;;15.90;99.90;;;;;;6082927;23;20101;-70
2023/09/14 07:15:43;;;;;;;4.68;1.00;;;15.80;99.90;;;;;;6084238;23;20502;-69
2023/09/14 07:18:11;;;;;;;6.28;1.02;;;15.70;99.90;;;;;;6085441;23;20022;-70
2023/09/14 07:20:36;;;;;;;10.45;1.50;;;15.60;99.90;;;;;;6083337;23;20022;-70
2023/09/14 07:23:02;;;;;;;5.75;1.00;;;15.50;99.90;;;;;;6110754;23;20058;-69
2023/09/14 07:25:28;;;;;;;7.95;1.33;;;15.40;99.90;;;;;;6084724;23;20018;-70
2023/09/14 07:27:54;;;;;;;4.38;0.90;;;15.40;99.90;;;;;;6111251;23;20021;-69
2023/09/14 07:30:19;;;;;;;6.53;1.17;;;15.20;99.90;;;;;;6110339;23;20325;-70
2023/09/14 07:32:45;;;;;;;6.03;1.10;;;15.20;99.90;;;;;;6111282;23;20028;-69
2023/09/14 07:35:12;;;;;;;5.85;1.00;;;15.20;99.90;;;;;;6084311;23;20437;-69
2023/09/14 07:37:38;;;;;;;2.60;1.40;;;15.20;99.90;;;;;;6109585;23;20081;-69
2023/09/14 07:40:05;;;;;;;3.28;0.70;;;15.20;99.90;;;;;;6084029;23;20028;-69
2023/09/14 07:42:30;;;;;;;6.15;0.98;;;15.10;99.90;;;;;;6110373;23;20724;-70
2023/09/14 07:44:56;;;;;;;4.32;1.00;;;15.10;99.90;;;;;;6084900;23;20022;-69
2023/09/14 07:47:28;;;;;;;5.63;1.20;;;15.10;99.90;;;;;;6085338;23;20018;-70
2023/09/14 07:49:53;;;;;;;3.70;1.33;;;15.10;99.90;;;;;;6110171;23;20021;-69
2023/09/14 07:52:19;;;;;;;9.45;1.65;;;15.20;99.90;;;;;;6085873;23;20022;-69
2023/09/14 07:54:44;;;;;;;4.03;1.23;;;15.20;99.90;;;;;;6084107;23;20029;-70
2023/09/14 07:57:10;;;;;;;4.22;1.40;;;15.20;99.90;;;;;;6083749;23;20029;-69
2023/09/14 07:59:36;;;;;;;5.32;1.48;;;15.30;99.90;;;;;;6084126;23;20021;-69
2023/09/14 08:02:02;;;;;;;6.53;1.40;;;15.40;99.90;;;;;;6085339;23;20032;-70
2023/09/14 08:04:27;;;;;;;7.25;1.73;;;15.40;99.90;;;;;;6111167;23;20018;-69
2023/09/14 08:06:53;;;;;;;3.60;1.10;;;15.40;99.90;;;;;;6111495;23;20017;-70
2023/09/14 08:09:19;;;;;;;6.93;1.35;;;15.60;99.90;;;;;;6088489;23;20033;-69
2023/09/14 08:11:45;;;;;;;6.97;1.73;;;15.60;99.90;;;;;;6111806;23;20116;-70
2023/09/14 08:14:10;;;;;;;6.53;1.50;;;15.70;99.90;;;;;;6088618;23;20021;-70
2023/09/14 08:16:36;;;;;;;7.70;1.30;;;15.80;99.90;;;;;;6087261;23;20026;-70
2023/09/14 08:19:01;;;;;;;4.18;1.20;;;15.90;99.90;;;;;;6084205;23;20030;-70
2023/09/14 08:21:27;;;;;;;3.28;1.05;;;16.20;99.90;;;;;;6084448;23;20025;-70
2023/09/14 08:23:53;;;;;;;4.57;1.17;;;16.30;99.90;;;;;;6084697;23;20053;-70
2023/09/14 08:26:19;;;;;;;4.10;1.13;;;16.60;99.90;;;;;;6084798;23;20018;-70
2023/09/14 08:28:45;;;;;;;3.60;1.48;;;16.80;99.90;;;;;;6084245;23;20106;-70
2023/09/14 08:31:11;;;;;;;6.10;0.90;;;17.10;99.90;;;;;;6059830;23;20113;-70
2023/09/14 08:33:36;;;;;;;8.40;1.77;;;17.30;99.90;;;;;;6084201;23;20057;-70
2023/09/14 08:36:02;;;;;;;9.40;0.98;;;17.50;99.90;;;;;;6083644;23;20026;-69
2023/09/14 08:38:28;;;;;;;4.65;1.15;;;17.70;99.90;;;;;;6110408;23;20927;-70
2023/09/14 08:40:59;;;;;;;6.70;1.52;;;17.90;99.90;;;;;;6110694;23;20010;-70
2023/09/14 08:43:25;;;;;;;9.02;1.95;;;18.20;99.90;;;;;;6110490;23;20440;-70
2023/09/14 08:45:52;;;;;;;4.35;1.25;;;18.30;99.90;;;;;;6111244;23;20049;-70
2023/09/14 08:48:22;;;;;;;6.07;1.50;;;18.60;99.90;;;;;;6085172;23;20025;-70
2023/09/14 08:50:48;;;;;;;4.05;1.52;;;18.80;99.90;;;;;;6109778;23;20080;-70
2023/09/14 08:53:14;;;;;;;7.00;1.42;;;19.00;99.90;;;;;;6084747;23;20014;-70
2023/09/14 08:55:40;;;;;;;9.05;1.67;;;19.00;99.90;;;;;;6110213;23;20096;-70
2023/09/14 08:58:07;;;;;;;9.95;1.30;;;19.10;99.90;;;;;;6084542;23;20018;-70
2023/09/14 09:00:33;;;;;;;3.08;0.98;;;19.20;99.90;;;;;;6109644;23;20020;-70
2023/09/14 09:02:59;;;;;;;5.60;1.35;;;19.30;99.90;;;;;;6085542;23;20024;-70
2023/09/14 09:05:25;;;;;;;3.22;1.23;;;19.40;99.90;;;;;;6110303;23;20068;-70
2023/09/14 09:07:52;;;;;;;6.32;1.05;;;19.50;99.90;;;;;;6089263;23;20120;-70
2023/09/14 09:10:22;;;;;;;4.93;1.17;;;19.70;99.90;;;;;;6083346;23;20021;-69
2023/09/14 09:12:55;;;;;;;3.83;1.63;;;19.80;99.90;;;;;;6084359;23;20026;-70
2023/09/14 09:15:24;;;;;;;8.52;1.70;;;19.90;99.90;;;;;;6083568;23;20021;-70
2023/09/14 09:17:53;;;;;;;6.22;1.40;;;20.00;99.90;;;;;;6082376;23;20068;-70
2023/09/14 09:20:23;;;;;;;5.57;1.73;;;20.10;99.90;;;;;;6109077;23;20340;-70
2023/09/14 09:22:50;;;;;;;4.00;1.55;;;20.20;99.90;;;;;;6110556;23;20338;-70
2023/09/14 09:25:21;;;;;;;4.82;0.98;;;20.30;99.90;;;;;;6110788;23;20022;-70
2023/09/14 09:27:47;;;;;;;8.88;1.88;;;20.30;99.90;;;;;;6110305;23;20512;-70
2023/09/14 09:30:13;;;;;;;6.95;1.33;;;20.40;99.90;;;;;;6082873;23;20351;-70
2023/09/14 09:32:41;;;;;;;6.88;1.35;;;20.50;99.90;;;;;;6084763;23;20453;-70
2023/09/14 09:35:16;;;;;;;4.50;1.27;;;20.60;99.90;;;;;;6110432;23;20361;-70
2023/09/14 09:37:42;;;;;;;8.18;2.25;;;20.70;99.90;;;;;;6084470;23;20068;-70
2023/09/14 09:40:19;;;;;;;4.53;1.20;;;20.70;99.90;;;;;;6109666;23;20021;-70
2023/09/14 09:42:45;;;;;;;5.97;1.50;;;20.70;99.90;;;;;;6110516;23;20089;-70
2023/09/14 09:45:12;;;;;;;6.68;1.58;;;20.80;99.90;;;;;;6109711;23;20022;-70
2023/09/14 09:47:40;;;;;;;5.15;1.48;;;20.80;99.90;;;;;;6084508;23;20048;-70
2023/09/14 09:50:08;;;;;;;6.20;1.63;;;20.80;99.90;;;;;;6082993;23;20026;-70
2023/09/14 09:52:34;;;;;;;5.72;1.60;;;20.90;99.90;;;;;;6113062;23;20018;-70
2023/09/14 09:54:59;;;;;;;4.05;1.25;;;21.00;99.90;;;;;;6061985;23;20419;-70
2023/09/14 09:57:32;;;;;;;4.80;1.02;;;21.10;99.90;;;;;;6110235;23;20085;-71
2023/09/14 09:59:57;;;;;;;6.22;1.48;;;21.10;99.90;;;;;;6084392;23;20017;-70
2023/09/14 10:02:33;;;;;;;3.78;1.10;;;21.30;99.90;;;;;;6086487;23;20087;-70
2023/09/14 10:04:59;;;;;;;8.23;1.55;;;21.40;99.90;;;;;;6085716;23;20020;-70
2023/09/14 10:07:25;;;;;;;4.72;1.35;;;21.40;99.90;;;;;;6085029;23;20108;-70
2023/09/14 10:09:54;;;;;;;3.95;1.00;;;21.40;99.90;;;;;;6084914;23;20089;-70
2023/09/14 10:12:24;;;;;;;5.88;1.27;;;21.40;99.20;;;;;;6086217;23;20471;-70
2023/09/14 10:14:55;;;;;;;4.93;1.45;;;21.20;99.20;;;;;;6109508;23;20018;-69
2023/09/14 10:17:25;;;;;;;5.95;1.77;;;21.10;99.40;;;;;;6111819;23;20405;-70
2023/09/14 10:19:51;;;;;;;5.13;1.10;;;21.20;99.90;;;;;;6085004;23;20018;-70
2023/09/14 10:22:19;;;;;;;4.90;1.30;;;21.30;99.60;;;;;;6081071;23;20029;-70
2023/09/14 10:24:45;;;;;;;6.45;1.55;;;21.60;99.80;;;;;;6086580;23;20067;-70
2023/09/14 10:27:13;;;;;;;7.53;1.50;;;21.70;99.40;;;;;;6090678;23;20022;-70
2023/09/14 10:29:42;;;;;;;4.93;1.33;;;21.60;99.60;;;;;;6067050;23;20022;-70
2023/09/14 10:32:10;;;;;;;4.38;1.10;;;21.60;99.60;;;;;;6092938;23;20013;-70
2023/09/14 10:34:37;;;;;;;4.53;1.20;;;21.70;99.00;;;;;;6093344;23;20433;-70
2023/09/14 10:37:04;;;;;;;5.80;1.38;;;21.80;98.80;;;;;;6118593;23;20024;-70
2023/09/14 10:39:30;;;;;;;5.45;1.42;;;21.90;98.90;;;;;;6118612;23;20317;-70
2023/09/14 10:41:56;;;;;;;6.70;1.45;;;21.80;98.80;;;;;;6092375;23;20470;-70
2023/09/14 10:44:22;;;;;;;5.03;1.38;;;21.40;98.60;;;;;;6119347;23;20085;-70
2023/09/14 10:46:52;;;;;;;5.22;1.67;;;21.10;99.20;;;;;;6093703;23;20421;-70
2023/09/14 10:49:22;;;;;;;7.75;1.80;;;20.80;98.90;;;;;;6092736;23;20025;-70
2023/09/14 10:51:49;;;;;;;4.60;1.60;;;20.70;99.00;;;;;;6117399;23;20014;-70
2023/09/14 10:54:14;;;;;;;3.25;1.10;;;20.70;99.50;;;;;;6060341;23;20014;-70
2023/09/14 10:56:40;;;;;;;3.95;1.70;;;20.80;99.00;;;;;;6110491;23;20803;-70
2023/09/14 10:59:09;;;;;;;4.85;1.33;;;21.00;99.40;;;;;;6111674;23;20043;-70
2023/09/14 11:01:48;;;;;;;4.82;1.33;;;21.30;99.30;;;;;;6061738;23;20029;-71
2023/09/14 11:04:17;;;;;;;5.63;1.35;;;21.50;97.90;;;;;;6085937;23;20322;-70
2023/09/14 11:06:45;;;;;;;5.40;2.35;;;21.20;98.40;;;;;;6116711;23;20014;-70
2023/09/14 11:09:13;;;;;;;5.85;1.55;;;20.90;98.60;;;;;;6088079;23;20028;-70
2023/09/14 11:11:41;;;;;;;4.95;0.98;;;20.80;99.00;;;;;;6111604;23;20014;-70
2023/09/14 11:14:09;;;;;;;4.70;1.30;;;20.60;99.20;;;;;;6085482;23;20025;-70
2023/09/14 11:16:46;;;;;;;6.18;1.20;;;20.70;98.70;;;;;;6061199;23;20021;-70
2023/09/14 11:19:32;;;;;;;4.72;1.48;;;20.70;97.60;;;;;;6086385;23;20539;-70
2023/09/14 11:22:03;;;;;;;6.13;1.67;;;20.70;98.10;;;;;;6111004;23;20309;-70
2023/09/14 11:24:36;;;;;;;4.43;1.40;;;20.90;98.50;;;;;;6083259;23;20023;-70
2023/09/14 11:27:02;;;;;;;5.28;1.73;;;20.80;98.60;;;;;;6084716;23;20125;-70
2023/09/14 11:29:30;;;;;;;3.80;1.10;;;20.80;98.80;;;;;;6085771;23;20353;-70
2023/09/14 11:32:06;;;;;;;5.07;1.17;;;20.60;99.10;;;;;;6088188;23;20013;-70
2023/09/14 11:34:35;;;;;;;4.68;1.67;;;20.50;99.10;;;;;;6085670;23;20017;-70
2023/09/14 11:37:01;;;;;;;4.45;1.55;;;20.40;98.70;;;;;;6111043;23;20634;-70
2023/09/14 11:39:30;;;;;;;3.97;1.45;;;20.20;98.20;;;;;;6085152;23;20021;-70
2023/09/14 11:42:00;;;;;;;5.05;1.50;;;20.10;98.30;;;;;;6085097;23;20028;-70
2023/09/14 11:44:32;;;;;;;5.15;1.63;;;20.00;99.10;;;;;;6110296;23;20092;-71
2023/09/14 11:47:01;;;;;;;5.88;1.90;;;19.90;98.90;;;;;;6086256;23;20475;-70
2023/09/14 11:49:31;;;;;;;4.95;1.52;;;19.80;99.00;;;;;;6112343;23;20329;-71
2023/09/14 11:51:57;;;;;;;13.60;1.50;;;19.70;98.90;;;;;;6111540;23;20091;-70
2023/09/14 11:54:32;;;;;;;3.42;1.33;;;19.80;99.30;;;;;;6110685;23;20455;-71
2023/09/14 11:57:03;;;;;;;5.70;1.05;;;19.90;99.90;;;;;;6085183;23;20017;-70
2023/09/14 11:59:30;;;;;;;6.45;1.23;;;20.20;99.40;;;;;;6110221;23;20073;-70
2023/09/14 12:01:57;;;;;;;4.43;2.00;;;20.30;99.20;;;;;;6087161;23;20021;-70
2023/09/14 12:04:30;;;;;;;6.75;1.60;;;20.20;99.40;;;;;;6111224;23;20425;-71
2023/09/14 12:06:58;;;;;;;5.80;1.48;;;20.30;99.60;;;;;;6085325;23;20013;-70
2023/09/14 12:09:40;;;;;;;6.60;1.60;;;20.30;99.90;;;;;;6113418;23;20025;-70
2023/09/14 12:12:09;;;;;;;3.97;1.40;;;20.60;99.60;;;;;;6085600;23;20053;-70
2023/09/14 12:14:40;;;;;;;6.50;1.48;;;20.80;99.20;;;;;;6084018;23;20082;-70
2023/09/14 12:17:22;;;;;;;5.72;1.50;;;20.90;98.40;;;;;;6084422;23;20075;-70
2023/09/14 12:19:50;;;;;;;8.40;1.75;;;21.10;98.80;;;;;;6112007;23;20087;-71
2023/09/14 12:22:18;;;;;;;5.63;1.50;;;21.30;98.40;;;;;;6111006;23;20056;-70
2023/09/14 12:24:44;;;;;;;5.20;1.35;;;21.30;99.10;;;;;;6089520;23;20032;-70
2023/09/14 12:27:11;;;;;;;3.17;1.15;;;21.40;98.20;;;;;;6111740;23;20020;-70
2023/09/14 12:29:37;;;;;;;5.65;1.45;;;21.50;98.50;;;;;;6088027;23;20024;-70
2023/09/14 12:32:03;;;;;;;5.15;1.60;;;21.50;98.90;;;;;;6110772;23;20018;-70
2023/09/14 12:34:29;;;;;;;5.32;1.48;;;21.50;98.40;;;;;;6085469;23;20013;-70
2023/09/14 12:36:55;;;;;;;5.45;1.52;;;21.50;97.70;;;;;;6111233;23;20014;-71
2023/09/14 12:39:21;;;;;;;5.43;1.55;;;21.40;96.90;;;;;;6084678;23;20105;-71
2023/09/14 12:41:52;;;;;;;4.18;1.50;;;21.40;97.00;;;;;;6084753;23;20022;-70
2023/09/14 12:44:19;;;;;;;4.88;1.55;;;21.30;96.90;;;;;;6110093;23;20083;-70
2023/09/14 12:46:45;;;;;;;5.40;1.73;;;21.30;97.70;;;;;;6111996;23;20025;-70